Time;durP1;ratioP1;P1;durP2;ratioP2;P2;SDS_P1;SDS_P2;PMS_P1;PMS_P2;Temp;Humidity;BMP_temperature;BMP_pressure;BME280_temperature;BME280_humidity;BME280_pressure;Samples;Min_cycle;Max_cycle;Signal;HPM_P1;HPM_P2
2023/03/24 00:00:28;;;;;;;3.42;1.70;;;;;;;-145.69;78.44;52250.31;5119949;27;20221;-83
2023/03/24 00:02:55;;;;;;;4.30;2.10;;;;;;;-145.69;80.64;52274.06;5120678;28;20205;-84
2023/03/24 00:05:22;;;;;;;3.53;1.77;;;;;;;-145.69;80.40;52246.34;5120466;28;20291;-82
2023/03/24 00:07:50;;;;;;;3.55;2.05;;;;;;;-145.69;81.42;52262.19;5121500;28;20544;-83
2023/03/24 00:10:19;;;;;;;3.47;1.83;;;;;;;-145.69;80.44;52262.19;5119737;28;20263;-83
2023/03/24 00:12:47;;;;;;;3.45;1.98;;;;;;;-145.69;81.35;52274.06;5120130;28;20201;-83
2023/03/24 00:15:17;;;;;;;3.53;1.80;;;;;;;-145.69;83.88;52254.28;5120821;28;20236;-84
2023/03/24 00:17:44;;;;;;;7.20;2.38;;;;;;;-145.69;82.20;52220.59;5121136;28;20207;-82
2023/03/24 00:20:14;;;;;;;4.40;1.77;;;;;;;-145.69;81.67;52234.47;5120739;28;20229;-84
2023/03/24 00:22:42;;;;;;;4.05;1.80;;;;;;;-145.69;84.31;52272.09;5118503;28;20512;-83
2023/03/24 00:25:11;;;;;;;2.17;1.63;;;;;;;-145.69;81.49;52246.34;5116644;28;20229;-83
2023/03/24 00:27:38;;;;;;;5.20;1.77;;;;;;;-145.69;81.47;52230.50;5117448;28;20612;-83
2023/03/24 00:30:07;;;;;;;3.50;2.00;;;;;;;-145.69;81.74;52262.19;5098484;28;20198;-82
2023/03/24 00:32:35;;;;;;;3.53;1.85;;;;;;;-145.69;82.45;52238.44;5116510;28;20203;-83
2023/03/24 00:35:02;;;;;;;2.95;1.70;;;;;;;-145.69;82.68;52258.22;5117068;28;20618;-83
2023/03/24 00:37:28;;;;;;;3.25;1.67;;;;;;;-145.69;83.18;52240.41;5116045;28;20201;-82
2023/03/24 00:39:55;;;;;;;6.10;2.10;;;;;;;-145.69;84.13;52234.47;5117005;28;20225;-82
2023/03/24 00:42:24;;;;;;;3.53;1.40;;;;;;;-145.69;81.62;52216.66;5117566;28;20234;-83
2023/03/24 00:44:52;;;;;;;2.05;1.50;;;;;;;-145.69;80.44;52258.22;5117007;28;20284;-83
2023/03/24 00:47:25;;;;;;;3.45;1.50;;;;;;;-145.69;82.18;52270.13;5116092;28;20201;-83
2023/03/24 00:49:53;;;;;;;3.88;1.80;;;;;;;-145.69;81.32;52252.28;5115930;28;20229;-83
2023/03/24 00:52:21;;;;;;;3.20;1.40;;;;;;;-145.69;81.14;52202.78;5116135;28;20219;-83
2023/03/24 00:54:50;;;;;;;1.90;1.40;;;;;;;-145.69;78.99;52244.38;5116552;28;20198;-83
2023/03/24 00:57:20;;;;;;;2.08;1.33;;;;;;;-145.69;78.21;52224.56;5115733;28;20560;-83
2023/03/24 00:59:48;;;;;;;1.55;1.27;;;;;;;-145.69;79.36;52242.38;5115919;28;20247;-84
2023/03/24 01:02:18;;;;;;;2.03;1.33;;;;;;;-145.69;79.78;52262.19;5115953;28;20206;-83
2023/03/24 01:04:46;;;;;;;2.88;1.48;;;;;;;-145.69;78.78;52240.41;5116171;28;20598;-82
2023/03/24 01:07:17;;;;;;;2.00;1.60;;;;;;;-145.69;75.28;52242.38;5116346;28;20660;-83
2023/03/24 01:09:56;;;;;;;2.42;0.98;;;;;;;-145.69;76.63;52202.78;5115799;28;20680;-82
2023/03/24 01:12:23;;;;;;;2.83;1.33;;;;;;;-145.69;74.60;52246.34;5115656;28;20228;-83
2023/03/24 01:14:52;;;;;;;5.25;1.42;;;;;;;-145.69;74.48;52240.41;5115462;28;20655;-83
2023/03/24 01:17:21;;;;;;;2.50;1.27;;;;;;;-145.69;76.73;52256.25;5115685;28;20592;-82
2023/03/24 01:19:47;;;;;;;2.83;1.35;;;;;;;-145.69;73.89;52230.50;5115877;28;20236;-82
2023/03/24 01:22:15;;;;;;;4.65;1.25;;;;;;;-145.69;72.94;52274.06;5115059;28;20559;-83
2023/03/24 01:24:42;;;;;;;1.95;1.08;;;;;;;-145.69;73.67;52252.28;5115335;28;20197;-83
2023/03/24 01:27:09;;;;;;;1.52;1.23;;;;;;;-145.69;71.57;52238.44;5115531;28;20190;-82
2023/03/24 01:29:36;;;;;;;5.90;1.50;;;;;;;-145.69;70.68;52230.50;5115822;28;20206;-82
2023/03/24 01:32:03;;;;;;;5.85;1.38;;;;;;;-145.69;69.55;52206.75;5115314;28;20201;-83
2023/03/24 01:34:30;;;;;;;3.22;1.00;;;;;;;-145.69;68.99;52254.28;5114600;28;20196;-83
2023/03/24 01:36:57;;;;;;;2.50;1.23;;;;;;;-145.69;69.18;52226.53;5115330;28;20304;-82
2023/03/24 01:39:23;;;;;;;2.67;1.30;;;;;;;-145.69;71.38;52258.22;5114778;28;20217;-83
2023/03/24 01:41:50;;;;;;;1.75;1.08;;;;;;;-145.69;68.46;52230.50;5115244;28;20201;-81
2023/03/24 01:44:26;;;;;;;2.10;1.10;;;;;;;-145.69;69.66;52232.50;5114736;28;20201;-83
2023/03/24 01:46:52;;;;;;;3.03;1.30;;;;;;;-145.69;70.46;52238.44;5114748;28;20201;-82
2023/03/24 01:49:22;;;;;;;3.42;1.20;;;;;;;-145.69;68.71;52238.44;5099989;28;20198;-83
2023/03/24 01:51:53;;;;;;;3.15;1.40;;;;;;;-145.69;68.23;52230.50;5094920;28;20198;-83
2023/03/24 01:54:23;;;;;;;2.33;1.55;;;;;;;-145.69;68.37;52216.66;5094419;28;20194;-82
2023/03/24 01:56:54;;;;;;;2.15;1.30;;;;;;;-145.69;69.09;52196.84;5095027;28;20205;-83
2023/03/24 01:59:24;;;;;;;3.38;1.20;;;;;;;-145.69;68.84;52254.28;5109106;28;20193;-83
2023/03/24 02:01:53;;;;;;;3.08;1.35;;;;;;;-145.69;68.03;52222.59;5114582;28;20252;-82
2023/03/24 02:04:21;;;;;;;2.45;1.30;;;;;;;-145.69;68.05;52240.41;5114285;28;20205;-82
2023/03/24 02:06:48;;;;;;;2.83;1.40;;;;;;;-145.69;66.89;52228.53;5115604;28;20193;-83
2023/03/24 02:09:15;;;;;;;3.40;1.60;;;;;;;-145.69;68.44;52228.53;5114363;28;20204;-84
2023/03/24 02:11:42;;;;;;;2.00;1.30;;;;;;;-145.69;67.54;52238.44;5114909;28;20197;-83
2023/03/24 02:14:10;;;;;;;3.72;1.35;;;;;;;-145.69;71.22;52216.66;5114661;28;20204;-84
2023/03/24 02:17:10;;;;;;;2.33;1.20;;;;;;;-145.69;71.19;52230.50;5114511;28;20601;-83
2023/03/24 02:20:10;;;;;;;3.40;1.38;;;;;;;-145.69;68.17;52242.38;5088708;28;20228;-83
2023/03/24 02:23:08;;;;;;;2.92;1.15;;;;;;;-145.69;69.61;52258.22;5114299;28;20703;-83
2023/03/24 02:26:18;;;;;;;3.85;1.20;;;;;;;-145.69;70.06;52228.53;5113795;28;20194;-83
2023/03/24 02:28:54;;;;;;;3.95;1.60;;;;;;;-145.69;68.99;52224.56;5094353;28;20214;-82
2023/03/24 02:31:39;;;;;;;4.10;1.50;;;;;;;-145.69;69.76;52266.16;5109560;28;20805;-84
2023/03/24 02:34:34;;;;;;;3.00;1.13;;;;;;;-145.69;69.53;52262.19;5114446;28;20201;-83
2023/03/24 02:37:52;;;;;;;1.95;1.38;;;;;;;-145.69;69.08;52270.13;5115238;28;20197;-84
2023/03/24 02:40:26;;;;;;;2.20;1.30;;;;;;;-145.69;70.16;52226.53;5114729;28;20244;-83
2023/03/24 02:43:02;;;;;;;2.80;1.80;;;;;;;-145.69;71.22;52260.22;5115544;28;20261;-83
2023/03/24 02:45:35;;;;;;;2.70;1.30;;;;;;;-145.69;74.48;52238.44;5114272;28;20205;-83
2023/03/24 02:48:15;;;;;;;4.07;1.70;;;;;;;-145.69;73.50;52234.47;5114997;28;20204;-84
2023/03/24 02:50:49;;;;;;;2.00;1.30;;;;;;;-145.69;74.71;52242.38;5118042;28;20192;-84
2023/03/24 02:53:24;;;;;;;2.60;1.60;;;;;;;-145.69;75.89;52224.56;5094193;28;20208;-82
2023/03/24 02:55:56;;;;;;;4.25;1.52;;;;;;;-145.69;78.40;52226.53;5095463;28;20205;-82
2023/03/24 02:58:31;;;;;;;1.95;1.35;;;;;;;-145.69;79.40;52242.38;5114093;28;20197;-83
2023/03/24 03:01:02;;;;;;;2.70;1.55;;;;;;;-145.69;78.95;52226.53;5113303;28;20216;-83
2023/03/24 03:03:33;;;;;;;2.88;1.52;;;;;;;-145.69;77.57;52234.47;5114436;28;20213;-83
2023/03/24 03:06:03;;;;;;;5.30;2.03;;;;;;;-145.69;80.17;52220.59;5113719;28;20270;-83
2023/03/24 03:08:33;;;;;;;2.65;1.33;;;;;;;-145.69;78.87;52238.44;5113999;28;20205;-83
2023/03/24 03:11:06;;;;;;;2.65;1.70;;;;;;;-145.69;79.10;52238.44;5097441;28;20202;-83
2023/03/24 03:13:38;;;;;;;4.35;1.50;;;;;;;-145.69;79.84;52248.34;5115204;28;20201;-83
2023/03/24 03:16:10;;;;;;;2.40;1.73;;;;;;;-145.69;78.39;52234.47;5115746;28;20205;-84
2023/03/24 03:18:42;;;;;;;2.95;1.50;;;;;;;-145.69;76.38;52272.09;5115845;28;20200;-84
2023/03/24 03:21:12;;;;;;;3.58;1.60;;;;;;;-145.69;76.66;52256.25;5116428;28;20221;-84
2023/03/24 03:23:46;;;;;;;5.75;1.40;;;;;;;-145.69;76.54;52252.28;5118112;28;20220;-84
2023/03/24 03:26:18;;;;;;;1.98;1.50;;;;;;;-145.69;75.55;52226.53;5115292;28;20201;-84
2023/03/24 03:28:50;;;;;;;2.50;1.52;;;;;;;-145.69;76.96;52210.72;5116975;28;20258;-84
2023/03/24 03:31:23;;;;;;;1.60;1.40;;;;;;;-145.69;76.46;52230.50;5118466;28;20201;-84
2023/03/24 03:33:56;;;;;;;3.42;1.90;;;;;;;-145.69;77.09;52264.16;5119255;28;20201;-85
2023/03/24 03:36:27;;;;;;;4.03;1.60;;;;;;;-145.69;75.82;52242.38;5117006;28;20699;-85
2023/03/24 03:39:00;;;;;;;2.55;1.33;;;;;;;-145.69;79.05;52250.31;5118430;28;20307;-84
2023/03/24 03:41:28;;;;;;;3.42;1.50;;;;;;;-145.69;77.62;52232.50;5119658;28;20717;-85
2023/03/24 03:43:55;;;;;;;2.55;1.50;;;;;;;-145.69;76.22;52250.31;5115653;28;20233;-83
2023/03/24 03:46:21;;;;;;;3.47;1.38;;;;;;;-145.69;75.55;52222.59;5114790;28;20652;-84
2023/03/24 03:48:48;;;;;;;1.83;1.30;;;;;;;-145.69;76.16;52248.34;5114656;28;20193;-84
2023/03/24 03:51:17;;;;;;;2.10;1.25;;;;;;;-145.69;74.13;52216.66;5113915;28;20320;-83
2023/03/24 03:53:48;;;;;;;1.33;1.10;;;;;;;-145.69;72.77;52234.47;5111835;28;20248;-82
2023/03/24 03:56:17;;;;;;;2.20;1.00;;;;;;;-145.69;72.88;52250.31;5113098;28;20194;-83
2023/03/24 03:58:46;;;;;;;1.13;1.02;;;;;;;-145.69;74.61;52230.50;5115254;28;20193;-83
2023/03/24 04:01:17;;;;;;;3.63;1.15;;;;;;;-145.69;75.00;52222.59;5116739;28;20568;-83
2023/03/24 04:04:00;;;;;;;1.33;0.93;;;;;;;-145.69;75.00;52220.59;5116947;28;20296;-83
2023/03/24 04:06:36;;;;;;;1.10;1.00;;;;;;;-145.69;75.45;52212.69;5116926;28;20540;-83
2023/03/24 04:09:16;;;;;;;1.80;1.10;;;;;;;-145.69;75.60;52246.34;5117035;28;20208;-83
2023/03/24 04:12:00;;;;;;;1.17;1.02;;;;;;;-145.69;78.10;52230.50;5116716;28;20207;-83
2023/03/24 04:14:41;;;;;;;1.52;1.10;;;;;;;-145.69;75.44;52240.41;5117007;28;20205;-83
2023/03/24 04:17:17;;;;;;;1.40;0.77;;;;;;;-145.69;76.58;52244.38;5116733;28;20205;-84
2023/03/24 04:20:01;;;;;;;1.77;1.00;;;;;;;-145.69;74.50;52214.66;5116575;28;20197;-83
2023/03/24 04:22:42;;;;;;;1.65;1.00;;;;;;;-145.69;76.33;52234.47;5116445;28;20204;-83
2023/03/24 04:25:19;;;;;;;1.02;0.95;;;;;;;-145.69;74.92;52214.66;5116167;28;20239;-82
2023/03/24 04:27:55;;;;;;;1.73;1.05;;;;;;;-145.69;75.03;52228.53;5116291;28;20201;-82
2023/03/24 04:30:29;;;;;;;1.25;0.98;;;;;;;-145.69;76.72;52250.31;5115913;28;20674;-83
2023/03/24 04:32:58;;;;;;;1.60;0.93;;;;;;;-145.69;78.62;52222.59;5116106;28;20706;-83
2023/03/24 04:35:31;;;;;;;2.08;1.10;;;;;;;-145.69;78.72;52242.38;5115734;28;20690;-83
2023/03/24 04:38:02;;;;;;;1.45;1.02;;;;;;;-145.69;76.28;52218.63;5116535;28;20205;-83
2023/03/24 04:40:31;;;;;;;2.00;1.00;;;;;;;-145.69;76.17;52270.13;5116262;28;20233;-84
2023/03/24 04:43:00;;;;;;;2.83;1.00;;;;;;;-145.69;76.62;52250.31;5115495;28;20622;-83
2023/03/24 04:45:32;;;;;;;1.30;1.10;;;;;;;-145.69;77.47;52250.31;5116112;28;20201;-84
2023/03/24 04:48:01;;;;;;;1.13;0.95;;;;;;;-145.69;76.75;52208.72;5116141;28;20225;-83
2023/03/24 04:50:30;;;;;;;1.30;1.10;;;;;;;-145.69;78.44;52234.47;5116260;28;20193;-84
2023/03/24 04:52:57;;;;;;;1.73;0.95;;;;;;;-145.69;77.47;52220.59;5116577;28;20208;-84
2023/03/24 04:55:54;;;;;;;1.23;0.98;;;;;;;-145.69;78.12;52234.47;5116160;28;20200;-83
2023/03/24 04:58:22;;;;;;;1.23;0.90;;;;;;;-145.69;79.44;52218.63;5113142;28;20540;-83
2023/03/24 05:00:50;;;;;;;1.30;1.02;;;;;;;-145.69;80.13;52242.38;5116374;28;20229;-84
2023/03/24 05:03:18;;;;;;;1.88;1.27;;;;;;;-145.69;78.19;52244.38;5116850;28;20627;-83
2023/03/24 05:05:47;;;;;;;3.42;1.10;;;;;;;-145.69;78.75;52218.63;5115826;28;20198;-83
2023/03/24 05:08:15;;;;;;;3.45;1.15;;;;;;;-145.69;81.57;52254.28;5115990;28;20201;-83
2023/03/24 05:10:42;;;;;;;4.32;1.52;;;;;;;-145.69;80.77;52230.50;5115013;28;20201;-82
2023/03/24 05:13:09;;;;;;;2.85;1.40;;;;;;;-145.69;80.03;52202.78;5115805;28;20194;-83
2023/03/24 05:15:36;;;;;;;3.60;1.20;;;;;;;-145.69;83.23;52228.53;5115723;28;20201;-83
2023/03/24 05:18:05;;;;;;;1.60;1.20;;;;;;;-145.69;88.00;52214.66;5115123;28;20706;-83
2023/03/24 05:20:32;;;;;;;1.95;1.05;;;;;;;-145.69;90.91;52222.59;5115385;28;20224;-82
2023/03/24 05:23:00;;;;;;;1.70;1.05;;;;;;;-145.69;96.98;52222.59;5115470;28;20201;-83
2023/03/24 05:25:26;;;;;;;2.60;1.38;;;;;;;-145.69;95.87;52240.41;5115246;28;20224;-82
2023/03/24 05:27:53;;;;;;;2.17;1.30;;;;;;;-145.69;99.97;52274.06;5115392;28;20193;-83
2023/03/24 05:30:20;;;;;;;2.10;1.10;;;;;;;-145.69;100.00;52250.31;5115992;28;20212;-84
2023/03/24 05:32:46;;;;;;;3.50;1.50;;;;;;;-145.69;100.00;52262.19;5116001;28;20198;-82
2023/03/24 05:35:14;;;;;;;3.10;1.47;;;;;;;-145.69;100.00;52266.16;5114915;28;20198;-83
2023/03/24 05:37:41;;;;;;;2.27;1.50;;;;;;;-145.69;100.00;52293.88;5115191;28;20193;-82
2023/03/24 05:40:09;;;;;;;2.33;1.70;;;;;;;-145.69;100.00;52282.00;5114808;28;20197;-81
2023/03/24 05:42:35;;;;;;;3.23;2.13;;;;;;;-145.69;100.00;52274.06;5114488;28;20265;-81
2023/03/24 05:45:02;;;;;;;4.50;2.27;;;;;;;-145.69;100.00;52266.16;5114698;28;20193;-81
2023/03/24 05:47:28;;;;;;;2.47;1.80;;;;;;;-145.69;100.00;52232.50;5110138;28;20190;-82
2023/03/24 05:49:55;;;;;;;4.23;2.07;;;;;;;-145.69;100.00;52278.03;5094181;28;20212;-81
2023/03/24 05:52:22;;;;;;;2.60;1.83;;;;;;;-145.69;100.00;52282.00;5094393;28;20198;-81
2023/03/24 05:54:50;;;;;;;3.67;1.80;;;;;;;-145.69;100.00;52254.28;5099937;28;20197;-81
2023/03/24 05:57:19;;;;;;;3.53;1.90;;;;;;;-145.69;100.00;52274.06;5114337;28;20193;-81
2023/03/24 05:59:45;;;;;;;2.03;1.70;;;;;;;-145.69;100.00;52264.16;5114254;28;20204;-82
2023/03/24 06:02:12;;;;;;;3.50;2.53;;;;;;;-145.69;100.00;52297.84;5114367;28;20322;-79
2023/03/24 06:04:44;;;;;;;3.43;2.20;;;;;;;-145.69;100.00;52274.06;5114349;28;20205;-82
2023/03/24 06:07:11;;;;;;;3.83;2.03;;;;;;;-145.69;100.00;52282.00;5114370;28;20719;-83
2023/03/24 06:09:41;;;;;;;4.33;2.60;;;;;;;-145.69;100.00;52282.00;5096177;28;20197;-82
2023/03/24 06:12:09;;;;;;;6.57;2.30;;;;;;;-145.69;100.00;52278.03;5114478;28;20198;-82
2023/03/24 06:14:35;;;;;;;6.03;2.17;;;;;;;-145.69;100.00;52325.56;5114171;28;20197;-83
2023/03/24 06:17:02;;;;;;;3.60;2.10;;;;;;;-145.69;100.00;52293.88;5114339;28;20197;-83
2023/03/24 06:19:29;;;;;;;5.10;2.60;;;;;;;-145.69;100.00;52268.13;5115407;28;20193;-84
2023/03/24 06:21:59;;;;;;;2.87;1.87;;;;;;;-145.69;100.00;52285.97;5114661;28;20258;-83
2023/03/24 06:24:26;;;;;;;4.33;2.30;;;;;;;-145.69;100.00;52266.16;5114965;28;20205;-84
2023/03/24 06:27:00;;;;;;;3.90;2.10;;;;;;;-145.69;100.00;52283.97;5114351;28;20272;-84
2023/03/24 06:29:28;;;;;;;3.77;2.23;;;;;;;-145.69;100.00;52309.72;5114346;28;20201;-85
2023/03/24 06:31:54;;;;;;;4.50;2.13;;;;;;;-145.69;100.00;52289.91;5114567;28;20296;-85
2023/03/24 06:34:23;;;;;;;4.60;2.20;;;;;;;-145.69;100.00;52278.03;5114466;28;20202;-85
2023/03/24 06:36:50;;;;;;;6.28;2.03;;;;;;;-145.69;100.00;52287.94;5114382;28;20284;-85
2023/03/24 06:39:17;;;;;;;4.25;2.10;;;;;;;-145.69;100.00;52295.84;5114284;28;20194;-84
2023/03/24 06:41:43;;;;;;;3.47;2.03;;;;;;;-145.69;100.00;52315.66;5114127;28;20557;-84
2023/03/24 06:44:11;;;;;;;4.10;2.30;;;;;;;-145.69;100.00;52278.03;5113821;28;20237;-84
2023/03/24 06:46:38;;;;;;;7.60;2.70;;;;;;;-145.69;100.00;52309.72;5113787;28;20193;-84
2023/03/24 06:49:04;;;;;;;8.87;2.83;;;;;;;-145.69;100.00;52282.00;5114078;28;20282;-84
2023/03/24 06:51:31;;;;;;;4.70;2.33;;;;;;;-145.69;100.00;52297.84;5114476;28;20601;-86
2023/03/24 06:53:59;;;;;;;5.60;2.28;;;;;;;-145.69;100.00;52297.84;5115406;28;20240;-85
2023/03/24 06:56:26;;;;;;;4.90;2.53;;;;;;;-145.69;100.00;52303.78;5114762;28;20209;-86
2023/03/24 06:58:52;;;;;;;4.18;2.28;;;;;;;-145.69;100.00;52309.72;5114209;28;20640;-85
2023/03/24 07:01:21;;;;;;;5.43;2.35;;;;;;;-145.69;100.00;52301.81;5113873;28;20217;-84
2023/03/24 07:03:48;;;;;;;2.47;1.93;;;;;;;-145.69;100.00;52301.81;5113742;28;20293;-84
2023/03/24 07:06:15;;;;;;;3.03;2.17;;;;;;;-145.69;100.00;52311.69;5113445;28;20232;-85
2023/03/24 07:08:41;;;;;;;3.13;2.30;;;;;;;-145.69;100.00;52278.03;5113552;28;20246;-84
2023/03/24 07:11:08;;;;;;;2.63;1.83;;;;;;;-145.69;100.00;52287.94;5113104;28;20224;-83
2023/03/24 07:13:35;;;;;;;4.53;2.27;;;;;;;-145.69;100.00;52321.59;5113499;28;20518;-84
2023/03/24 07:16:02;;;;;;;3.50;2.30;;;;;;;-145.69;100.00;52321.59;5113052;28;20200;-83
2023/03/24 07:18:29;;;;;;;5.30;2.50;;;;;;;-145.69;100.00;52335.47;5113303;28;20220;-83
2023/03/24 07:20:56;;;;;;;5.60;3.00;;;;;;;-145.69;100.00;52325.56;5113094;28;20198;-82
2023/03/24 07:23:24;;;;;;;5.07;2.17;;;;;;;-145.69;100.00;52291.91;5113212;28;20232;-83
2023/03/24 07:25:50;;;;;;;3.27;2.17;;;;;;;-145.69;100.00;52325.56;5113029;28;20202;-83
2023/03/24 07:28:17;;;;;;;7.53;2.60;;;;;;;-145.69;100.00;52301.81;5113035;28;20193;-83
2023/03/24 07:30:43;;;;;;;4.27;2.70;;;;;;;-145.69;100.00;52349.31;5113370;28;20201;-83
2023/03/24 07:33:10;;;;;;;5.43;2.93;;;;;;;-145.69;100.00;52293.88;5114899;28;20205;-83
2023/03/24 07:35:39;;;;;;;4.10;2.63;;;;;;;-145.69;100.00;52301.81;5117103;28;20607;-84
2023/03/24 07:38:05;;;;;;;7.47;3.17;;;;;;;-145.69;100.00;52321.59;5116829;28;20197;-84
2023/03/24 07:40:33;;;;;;;5.67;2.70;;;;;;;-145.69;100.00;52337.44;5117399;28;20197;-83
2023/03/24 07:43:01;;;;;;;6.20;2.90;;;;;;;-145.69;100.00;52291.91;5116102;28;20593;-84
2023/03/24 07:45:28;;;;;;;4.63;3.20;;;;;;;-145.69;100.00;52325.56;5113133;28;20234;-84
2023/03/24 07:47:56;;;;;;;6.43;3.60;;;;;;;-145.69;100.00;52345.38;5096034;28;20447;-83
2023/03/24 07:50:22;;;;;;;7.90;3.42;;;;;;;-145.69;100.00;52315.66;5102486;28;20674;-84
2023/03/24 07:52:50;;;;;;;5.73;3.47;;;;;;;-145.69;100.00;52313.69;5116837;28;20194;-83
2023/03/24 07:55:17;;;;;;;8.77;2.80;;;;;;;-145.69;100.00;52353.28;5117162;28;20204;-83
2023/03/24 07:57:46;;;;;;;8.20;3.20;;;;;;;-145.69;100.00;52297.84;5117254;28;20600;-84
2023/03/24 08:00:16;;;;;;;9.20;2.97;;;;;;;-145.69;100.00;52305.75;5117014;28;20247;-84
2023/03/24 08:02:45;;;;;;;4.83;2.63;;;;;;;-145.69;100.00;52299.81;5116764;28;20209;-84
2023/03/24 08:05:13;;;;;;;7.83;3.70;;;;;;;-145.69;100.00;52323.59;5116348;28;20193;-85
2023/03/24 08:07:41;;;;;;;5.90;3.07;;;;;;;-145.69;100.00;52321.59;5115942;28;20241;-84
2023/03/24 08:10:10;;;;;;;7.63;4.17;;;;;;;-145.69;100.00;52341.41;5116015;28;20690;-84
2023/03/24 08:12:37;;;;;;;5.20;2.73;;;;;;;-145.69;100.00;52331.50;5116558;28;20209;-83
2023/03/24 08:15:04;;;;;;;8.23;4.40;;;;;;;-145.69;100.00;52325.56;5116509;28;20287;-84
2023/03/24 08:17:31;;;;;;;5.17;3.07;;;;;;;-145.69;100.00;52321.59;5116479;28;20660;-84
2023/03/24 08:19:57;;;;;;;4.93;2.40;;;;;;;-145.69;100.00;52313.69;5116391;28;20676;-83
2023/03/24 08:22:24;;;;;;;7.00;2.90;;;;;;;-145.69;100.00;52337.44;5116588;28;20696;-82
2023/03/24 08:24:50;;;;;;;4.83;2.60;;;;;;;-145.69;100.00;52321.59;5116115;28;20202;-84
2023/03/24 08:27:18;;;;;;;3.17;1.90;;;;;;;-145.69;100.00;52361.22;5116317;28;20201;-84
2023/03/24 08:29:45;;;;;;;5.87;2.33;;;;;;;-145.69;100.00;52307.75;5115697;28;20664;-83
2023/03/24 08:32:11;;;;;;;4.97;2.40;;;;;;;-145.69;100.00;52297.84;5116339;28;20198;-82
2023/03/24 08:34:38;;;;;;;5.00;2.20;;;;;;;-145.69;100.00;52323.59;5115961;28;20253;-82
2023/03/24 08:37:04;;;;;;;2.97;1.70;;;;;;;-145.69;100.00;52313.69;5115361;28;20688;-82
2023/03/24 08:39:31;;;;;;;3.13;1.83;;;;;;;-145.69;100.00;52325.56;5115773;28;20193;-82
2023/03/24 08:41:58;;;;;;;2.33;1.57;;;;;;;-145.69;100.00;52343.38;5115450;28;20225;-82
2023/03/24 08:44:25;;;;;;;1.50;1.20;;;;;;;-145.69;100.00;52333.47;5114782;28;20225;-84
2023/03/24 08:46:52;;;;;;;2.40;1.40;;;;;;;-145.69;100.00;52357.25;5115850;28;20567;-83
2023/03/24 08:49:18;;;;;;;2.07;1.30;;;;;;;-145.69;100.00;52345.38;5116265;28;20201;-84
2023/03/24 08:51:45;;;;;;;5.37;1.97;;;;;;;-145.69;100.00;52313.69;5116290;28;20201;-85
2023/03/24 08:54:12;;;;;;;2.20;1.53;;;;;;;-145.69;100.00;52325.56;5117432;28;20208;-85
2023/03/24 08:56:39;;;;;;;1.83;1.10;;;;;;;-145.69;100.00;52309.72;5116388;28;20197;-84
2023/03/24 08:59:06;;;;;;;3.10;1.47;;;;;;;-145.69;100.00;52333.47;5116310;28;20208;-84
2023/03/24 09:01:34;;;;;;;2.50;1.47;;;;;;;-145.69;100.00;52319.63;5116323;28;20228;-83
2023/03/24 09:04:01;;;;;;;0.80;0.80;;;;;;;-145.69;100.00;52329.53;5116291;28;20579;-82
2023/03/24 09:06:27;;;;;;;2.00;1.20;;;;;;;-145.69;100.00;52353.28;5115362;28;20587;-84
2023/03/24 09:08:54;;;;;;;2.30;1.10;;;;;;;-145.69;100.00;52309.72;5115752;28;20201;-83
2023/03/24 09:11:23;;;;;;;1.43;1.10;;;;;;;-145.69;100.00;52305.75;5115164;28;20288;-83
2023/03/24 09:13:50;;;;;;;3.40;1.40;;;;;;;-145.69;100.00;52274.06;5115440;28;20296;-83
2023/03/24 09:16:19;;;;;;;1.30;1.00;;;;;;;-145.69;100.00;52297.84;5115591;28;20208;-84
2023/03/24 09:18:47;;;;;;;1.80;0.93;;;;;;;-145.69;100.00;52309.72;5116082;28;20201;-83
2023/03/24 09:21:13;;;;;;;1.20;0.80;;;;;;;-145.69;100.00;52317.66;5115289;28;20193;-86
2023/03/24 09:23:43;;;;;;;1.40;1.10;;;;;;;-145.69;100.00;52337.44;5115330;28;20313;-84
2023/03/24 09:26:13;;;;;;;1.35;0.85;;;;;;;-145.69;100.00;52317.66;5115099;28;20254;-82
2023/03/24 09:28:40;;;;;;;1.15;0.80;;;;;;;-145.69;100.00;52282.00;5115026;28;20264;-82
2023/03/24 09:31:10;;;;;;;1.25;0.90;;;;;;;-145.69;100.00;52305.75;5114902;28;20595;-83
2023/03/24 09:33:37;;;;;;;2.17;1.05;;;;;;;-145.69;100.00;52285.97;5116398;28;20205;-81
2023/03/24 09:36:10;;;;;;;0.73;0.73;;;;;;;-145.69;100.00;52293.88;5116107;28;20271;-83
2023/03/24 09:38:39;;;;;;;0.93;0.70;;;;;;;-145.69;100.00;52301.81;5117116;28;20212;-83
2023/03/24 09:41:19;;;;;;;0.80;0.80;;;;;;;-145.69;100.00;52319.63;5117217;28;20201;-83
2023/03/24 09:43:51;;;;;;;1.15;1.00;;;;;;;-145.69;100.00;52274.06;5117286;28;20350;-82
2023/03/24 09:46:28;;;;;;;0.98;0.90;;;;;;;-145.69;100.00;52295.84;5116632;28;20201;-84
2023/03/24 09:48:58;;;;;;;0.98;0.80;;;;;;;-145.69;100.00;52315.66;5115433;28;20202;-84
2023/03/24 09:51:27;;;;;;;0.88;0.77;;;;;;;-145.69;100.00;52258.22;5096709;28;20660;-83
2023/03/24 09:54:02;;;;;;;1.27;0.90;;;;;;;-145.69;100.00;52254.28;5115962;28;20205;-83
2023/03/24 09:56:29;;;;;;;1.00;0.90;;;;;;;-145.69;100.00;52297.84;5114994;27;20187;-82
2023/03/24 09:59:03;;;;;;;1.10;1.00;;;;;;;-145.69;100.00;52266.16;5129232;27;20548;-82
2023/03/24 10:01:30;;;;;;;2.70;1.00;;;;;;;-145.69;100.00;52285.97;5115979;28;20683;-84
2023/03/24 10:03:59;;;;;;;1.00;0.90;;;;;;;-145.69;100.00;52297.84;5117171;28;20236;-84
2023/03/24 10:06:31;;;;;;;1.55;1.00;;;;;;;-145.69;100.00;52285.97;5117285;28;20201;-84
2023/03/24 10:09:10;;;;;;;1.67;1.02;;;;;;;-145.69;100.00;52266.16;5116901;28;20212;-84
2023/03/24 10:11:45;;;;;;;1.23;0.80;;;;;;;-145.69;100.00;52289.91;5116374;28;20197;-84
2023/03/24 10:14:26;;;;;;;2.58;1.58;;;;;;;-145.69;100.00;52297.84;5116458;28;20196;-84
2023/03/24 10:16:59;;;;;;;1.13;0.98;;;;;;;-145.69;100.00;52289.91;5119316;28;20207;-84
2023/03/24 10:19:38;;;;;;;0.93;0.80;;;;;;;-145.69;100.00;52287.94;5119622;28;20227;-83
2023/03/24 10:22:14;;;;;;;1.52;0.82;;;;;;;-145.69;100.00;52278.03;5119410;28;20217;-84
2023/03/24 10:24:48;;;;;;;1.63;0.95;;;;;;;-145.69;100.00;52238.44;5118737;28;20224;-82
2023/03/24 10:27:25;;;;;;;1.45;0.93;;;;;;;-145.69;100.00;52299.81;5118254;28;20229;-83
2023/03/24 10:29:57;;;;;;;2.30;1.13;;;;;;;-145.69;100.00;52278.03;5118375;28;20197;-84
2023/03/24 10:32:26;;;;;;;1.05;0.95;;;;;;;-145.69;100.00;52297.84;5116853;28;20288;-83
2023/03/24 10:34:59;;;;;;;1.65;1.27;;;;;;;-145.69;100.00;52321.59;5117575;28;20292;-83
2023/03/24 10:37:29;;;;;;;1.10;0.80;;;;;;;-145.69;100.00;52289.91;5117591;28;20185;-84
2023/03/24 10:39:56;;;;;;;4.40;1.00;;;;;;;-145.69;100.00;52293.88;5117914;28;20697;-84
2023/03/24 10:42:26;;;;;;;1.23;0.93;;;;;;;-145.69;100.00;52258.22;5117589;28;20328;-83
2023/03/24 10:44:52;;;;;;;1.10;1.00;;;;;;;-145.69;100.00;52305.75;5116747;28;20211;-83
2023/03/24 10:47:24;;;;;;;2.00;1.20;;;;;;;-145.69;100.00;52287.94;5117032;28;20193;-84
2023/03/24 10:50:02;;;;;;;1.02;0.93;;;;;;;-145.69;100.00;52282.00;5118072;28;20209;-84
2023/03/24 10:52:39;;;;;;;1.02;0.80;;;;;;;-145.69;100.00;52270.13;5120865;28;20205;-85
2023/03/24 10:55:15;;;;;;;1.05;0.90;;;;;;;-145.69;100.00;52317.66;5120171;28;20197;-85
2023/03/24 10:57:44;;;;;;;1.25;0.90;;;;;;;-145.69;100.00;52297.84;5121644;28;20200;-84
2023/03/24 11:00:30;;;;;;;0.97;0.87;;;;;;;-145.69;100.00;52313.69;5124703;28;20197;-85
2023/03/24 11:03:01;;;;;;;1.30;0.90;;;;;;;-145.69;100.00;52325.56;5125178;28;20278;-84
2023/03/24 11:05:34;;;;;;;1.73;1.00;;;;;;;-145.69;100.00;52283.97;5105928;28;20208;-86
2023/03/24 11:08:25;;;;;;;0.93;0.90;;;;;;;-145.69;100.00;52278.03;5121030;28;20205;-84
2023/03/24 11:10:55;;;;;;;1.43;1.00;;;;;;;-145.69;100.00;52278.03;5117142;28;20201;-86
2023/03/24 11:13:29;;;;;;;1.95;0.82;;;;;;;-145.69;100.00;52309.72;5098176;28;20251;-84
2023/03/24 11:16:05;;;;;;;1.00;0.70;;;;;;;-145.69;100.00;52307.75;5124053;28;20200;-85
2023/03/24 11:18:32;;;;;;;1.05;0.60;;;;;;;-145.69;100.00;52282.00;5120725;28;20242;-85
2023/03/24 11:21:04;;;;;;;1.35;0.70;;;;;;;-145.69;100.00;52270.13;5120237;28;20204;-83
2023/03/24 11:23:38;;;;;;;0.70;0.70;;;;;;;-145.69;100.00;52282.00;5116953;28;20306;-85
2023/03/24 11:26:13;;;;;;;0.90;0.90;;;;;;;-145.69;100.00;52291.91;5116399;28;20200;-84